N123DC KSRQ-KPIE
Flight info
| Callsign | N123DC |
|---|---|
| Flight time | 0h 17m |
| Altitude | 1000 |
| Route | KSRQ VFR KPIE |
| Aircraft | A139/L-G/C |
Departure
| Time | 2026-04-21 20:11 |
|---|---|
| Airport | Sarasota Bradenton International Airport (KSRQ) |
Arrival
| Time | 2026-04-21 20:28 |
|---|---|
| Airport | St. Petersburg Clearwater International Airport (KPIE) |
| Time | Latitude | Longitude | Altitude | Speed | Heading |
|---|---|---|---|---|---|
| 2026-04-21 19:48 | 27.40181 | -82.54963 | 31 ft | 0 kts | 93° |
| 2026-04-21 20:09 | 27.40181 | -82.54958 | 32 ft | 4 kts | 92° |
| 2026-04-21 20:09 | 27.40176 | -82.54918 | 31 ft | 3 kts | 190° |
| 2026-04-21 20:09 | 27.40132 | -82.54924 | 32 ft | 10 kts | 192° |
| 2026-04-21 20:09 | 27.40125 | -82.54926 | 32 ft | 0 kts | 189° |
| 2026-04-21 20:10 | 27.40090 | -82.54910 | 32 ft | 10 kts | 99° |
| 2026-04-21 20:10 | 27.40017 | -82.54854 | 30 ft | 15 kts | 211° |
| 2026-04-21 20:10 | 27.39879 | -82.54980 | 48 ft | 35 kts | 217° |
| 2026-04-21 20:10 | 27.39651 | -82.55203 | 123 ft | 52 kts | 215° |
| 2026-04-21 20:11 | 27.39349 | -82.55454 | 248 ft | 58 kts | 215° |
| 2026-04-21 20:11 | 27.38993 | -82.55745 | 384 ft | 67 kts | 218° |
| 2026-04-21 20:11 | 27.38633 | -82.56130 | 540 ft | 75 kts | 236° |
| 2026-04-21 20:11 | 27.38460 | -82.56712 | 699 ft | 83 kts | 264° |
| 2026-04-21 20:12 | 27.38570 | -82.57368 | 828 ft | 90 kts | 291° |
| 2026-04-21 20:12 | 27.38965 | -82.57936 | 937 ft | 96 kts | 317° |
| 2026-04-21 20:12 | 27.39587 | -82.58297 | 942 ft | 111 kts | 339° |
| 2026-04-21 20:12 | 27.40380 | -82.58392 | 932 ft | 119 kts | 0° |
| 2026-04-21 20:13 | 27.41210 | -82.58227 | 935 ft | 123 kts | 8° |
| 2026-04-21 20:13 | 27.42059 | -82.58038 | 941 ft | 126 kts | 7° |
| 2026-04-21 20:13 | 27.42934 | -82.57846 | 940 ft | 129 kts | 7° |
| 2026-04-21 20:13 | 27.43822 | -82.57652 | 940 ft | 130 kts | 7° |
| 2026-04-21 20:14 | 27.44714 | -82.57464 | 938 ft | 130 kts | 5° |
| 2026-04-21 20:14 | 27.45613 | -82.57433 | 940 ft | 129 kts | 356° |
| 2026-04-21 20:14 | 27.46511 | -82.57446 | 940 ft | 129 kts | 356° |
| 2026-04-21 20:14 | 27.47408 | -82.57458 | 941 ft | 129 kts | 356° |
| 2026-04-21 20:15 | 27.48308 | -82.57469 | 943 ft | 129 kts | 356° |
| 2026-04-21 20:15 | 27.49212 | -82.57481 | 942 ft | 131 kts | 356° |
| 2026-04-21 20:15 | 27.50130 | -82.57495 | 860 ft | 137 kts | 356° |
| 2026-04-21 20:15 | 27.51095 | -82.57513 | 775 ft | 139 kts | 356° |
| 2026-04-21 20:16 | 27.52057 | -82.57536 | 738 ft | 138 kts | 356° |
| 2026-04-21 20:16 | 27.53006 | -82.57610 | 724 ft | 136 kts | 352° |
| 2026-04-21 20:16 | 27.53943 | -82.57701 | 717 ft | 134 kts | 352° |
| 2026-04-21 20:16 | 27.54870 | -82.57789 | 716 ft | 134 kts | 352° |
| 2026-04-21 20:17 | 27.55795 | -82.57874 | 714 ft | 132 kts | 352° |
| 2026-04-21 20:17 | 27.56709 | -82.57958 | 712 ft | 131 kts | 352° |
| 2026-04-21 20:17 | 27.57614 | -82.58039 | 715 ft | 130 kts | 352° |
| 2026-04-21 20:17 | 27.58521 | -82.58124 | 712 ft | 131 kts | 352° |
| 2026-04-21 20:18 | 27.59108 | -82.58243 | 712 ft | 129 kts | 342° |
| 2026-04-21 20:18 | 27.60267 | -82.58587 | 711 ft | 128 kts | 342° |
| 2026-04-21 20:18 | 27.61133 | -82.58841 | 713 ft | 129 kts | 342° |
| 2026-04-21 20:18 | 27.62002 | -82.59096 | 712 ft | 130 kts | 342° |
| 2026-04-21 20:19 | 27.62877 | -82.59353 | 713 ft | 131 kts | 342° |
| 2026-04-21 20:19 | 27.63762 | -82.59615 | 711 ft | 132 kts | 342° |
| 2026-04-21 20:19 | 27.64636 | -82.59876 | 706 ft | 131 kts | 342° |
| 2026-04-21 20:19 | 27.65513 | -82.60139 | 712 ft | 129 kts | 342° |
| 2026-04-21 20:20 | 27.66379 | -82.60396 | 711 ft | 128 kts | 342° |
| 2026-04-21 20:20 | 27.67240 | -82.60651 | 712 ft | 128 kts | 342° |
| 2026-04-21 20:20 | 27.68101 | -82.60906 | 715 ft | 128 kts | 342° |
| 2026-04-21 20:20 | 27.68964 | -82.61159 | 712 ft | 129 kts | 342° |
| 2026-04-21 20:21 | 27.69832 | -82.61413 | 711 ft | 129 kts | 342° |
| 2026-04-21 20:21 | 27.70699 | -82.61667 | 711 ft | 129 kts | 342° |
| 2026-04-21 20:21 | 27.71566 | -82.61922 | 713 ft | 128 kts | 342° |
| 2026-04-21 20:21 | 27.72418 | -82.62173 | 711 ft | 128 kts | 342° |
| 2026-04-21 20:22 | 27.73278 | -82.62427 | 713 ft | 127 kts | 342° |
| 2026-04-21 20:22 | 27.75003 | -82.62939 | 716 ft | 130 kts | 342° |
| 2026-04-21 20:22 | 27.75883 | -82.63202 | 715 ft | 131 kts | 342° |
| 2026-04-21 20:23 | 27.76769 | -82.63467 | 712 ft | 132 kts | 342° |
| 2026-04-21 20:23 | 27.77657 | -82.63730 | 711 ft | 132 kts | 342° |
| 2026-04-21 20:23 | 27.78542 | -82.63992 | 710 ft | 131 kts | 342° |
| 2026-04-21 20:23 | 27.79420 | -82.64252 | 709 ft | 129 kts | 342° |
| 2026-04-21 20:24 | 27.80289 | -82.64509 | 688 ft | 128 kts | 340° |
| 2026-04-21 20:24 | 27.81096 | -82.64746 | 704 ft | 115 kts | 341° |
| 2026-04-21 20:24 | 27.81839 | -82.64960 | 725 ft | 109 kts | 341° |
| 2026-04-21 20:24 | 27.82572 | -82.65179 | 710 ft | 109 kts | 339° |
| 2026-04-21 20:25 | 27.83272 | -82.65454 | 732 ft | 102 kts | 334° |
| 2026-04-21 20:25 | 27.83862 | -82.65765 | 731 ft | 87 kts | 327° |
| 2026-04-21 20:25 | 27.84377 | -82.66085 | 680 ft | 83 kts | 327° |
| 2026-04-21 20:25 | 27.84887 | -82.66403 | 749 ft | 84 kts | 326° |
| 2026-04-21 20:26 | 27.85379 | -82.66734 | 651 ft | 80 kts | 323° |
| 2026-04-21 20:26 | 27.85847 | -82.67074 | 547 ft | 80 kts | 323° |
| 2026-04-21 20:26 | 27.86315 | -82.67413 | 440 ft | 80 kts | 322° |
| 2026-04-21 20:26 | 27.86772 | -82.67743 | 390 ft | 77 kts | 324° |
| 2026-04-21 20:27 | 27.87269 | -82.68015 | 332 ft | 81 kts | 335° |
| 2026-04-21 20:27 | 27.87828 | -82.68205 | 233 ft | 88 kts | 341° |
| 2026-04-21 20:27 | 27.88453 | -82.68375 | 205 ft | 98 kts | 346° |
| 2026-04-21 20:27 | 27.89142 | -82.68514 | 165 ft | 99 kts | 345° |
| 2026-04-21 20:28 | 27.89807 | -82.68641 | 42 ft | 90 kts | 349° |
| 2026-04-21 20:28 | 27.90349 | -82.68725 | 29 ft | 68 kts | 346° |
| 2026-04-21 20:28 | 27.90750 | -82.68784 | 20 ft | 51 kts | 344° |
| 2026-04-21 20:28 | 27.91019 | -82.68886 | 27 ft | 37 kts | 331° |
| 2026-04-21 20:29 | 27.91255 | -82.69048 | 43 ft | 42 kts | 328° |
| 2026-04-21 20:29 | 27.91450 | -82.69165 | 28 ft | 19 kts | 325° |
| 2026-04-21 20:29 | 27.91476 | -82.69181 | 11 ft | 0 kts | 326° |
| 2026-04-21 20:30 | 27.91486 | -82.69190 | 15 ft | 3 kts | 311° |
| 2026-04-21 20:30 | 27.91487 | -82.69212 | 19 ft | 3 kts | 314° |
| 2026-04-21 20:30 | 27.91518 | -82.69212 | 19 ft | 4 kts | 313° |
| 2026-04-21 20:31 | 27.91517 | -82.69196 | 15 ft | 10 kts | 309° |
| 2026-04-21 20:31 | 27.91477 | -82.69206 | 16 ft | 3 kts | 306° |
| 2026-04-21 20:31 | 27.91502 | -82.69215 | 15 ft | 0 kts | 294° |